sensor_id;sensor_type;location;lat;lon;timestamp;temperature;humidity
43528;DHT22;52359;42.658;23.320;2023-05-29T00:07:40;13.80;99.90
43528;DHT22;52359;42.658;23.320;2023-05-29T00:17:25;13.80;99.90
43528;DHT22;52359;42.658;23.320;2023-05-29T00:19:51;13.90;99.90
43528;DHT22;52359;42.658;23.320;2023-05-29T00:22:17;13.80;99.90
43528;DHT22;52359;42.658;23.320;2023-05-29T00:24:42;13.70;99.90
43528;DHT22;52359;42.658;23.320;2023-05-29T02:08:27;13.70;99.90
43528;DHT22;52359;42.658;23.320;2023-05-29T02:10:53;13.70;99.90
43528;DHT22;52359;42.658;23.320;2023-05-29T03:04:35;13.20;99.90
43528;DHT22;52359;42.658;23.320;2023-05-29T03:07:01;13.10;99.90
43528;DHT22;52359;42.658;23.320;2023-05-29T03:09:26;12.80;99.90
43528;DHT22;52359;42.658;23.320;2023-05-29T03:11:52;12.80;99.90
43528;DHT22;52359;42.658;23.320;2023-05-29T03:14:18;12.60;99.90
43528;DHT22;52359;42.658;23.320;2023-05-29T03:16:44;12.70;99.90
43528;DHT22;52359;42.658;23.320;2023-05-29T03:19:11;12.80;99.90
43528;DHT22;52359;42.658;23.320;2023-05-29T03:21:36;12.90;99.90
43528;DHT22;52359;42.658;23.320;2023-05-29T03:24:02;13.00;99.90
43528;DHT22;52359;42.658;23.320;2023-05-29T03:26:28;13.10;99.90
43528;DHT22;52359;42.658;23.320;2023-05-29T03:28:54;13.20;99.90
43528;DHT22;52359;42.658;23.320;2023-05-29T03:31:20;13.20;99.90
43528;DHT22;52359;42.658;23.320;2023-05-29T05:00:08;14.90;99.90
43528;DHT22;52359;42.658;23.320;2023-05-29T05:02:36;15.10;99.90
43528;DHT22;52359;42.658;23.320;2023-05-29T05:05:03;15.20;99.90
43528;DHT22;52359;42.658;23.320;2023-05-29T05:09:54;15.80;99.90
43528;DHT22;52359;42.658;23.320;2023-05-29T05:12:20;15.80;99.90
43528;DHT22;52359;42.658;23.320;2023-05-29T05:14:46;15.70;99.90
43528;DHT22;52359;42.658;23.320;2023-05-29T05:17:12;15.70;99.90
43528;DHT22;52359;42.658;23.320;2023-05-29T05:19:37;15.80;99.90
43528;DHT22;52359;42.658;23.320;2023-05-29T05:22:03;15.90;99.90
43528;DHT22;52359;42.658;23.320;2023-05-29T05:24:29;15.90;99.90
43528;DHT22;52359;42.658;23.320;2023-05-29T05:26:54;16.10;99.90
43528;DHT22;52359;42.658;23.320;2023-05-29T05:29:20;16.20;99.90
43528;DHT22;52359;42.658;23.320;2023-05-29T05:31:46;16.30;99.90
43528;DHT22;52359;42.658;23.320;2023-05-29T05:34:11;16.30;99.90
43528;DHT22;52359;42.658;23.320;2023-05-29T05:36:37;16.20;99.90
43528;DHT22;52359;42.658;23.320;2023-05-29T05:39:03;16.30;99.90
43528;DHT22;52359;42.658;23.320;2023-05-29T05:41:29;16.50;99.90
43528;DHT22;52359;42.658;23.320;2023-05-29T05:43:57;16.60;99.90
43528;DHT22;52359;42.658;23.320;2023-05-29T05:46:24;16.70;99.90
43528;DHT22;52359;42.658;23.320;2023-05-29T07:10:19;18.90;99.90
43528;DHT22;52359;42.658;23.320;2023-05-29T07:12:44;18.90;99.90
43528;DHT22;52359;42.658;23.320;2023-05-29T07:15:10;18.90;99.90
43528;DHT22;52359;42.658;23.320;2023-05-29T07:17:36;18.80;99.90
43528;DHT22;52359;42.658;23.320;2023-05-29T07:20:01;19.00;99.90
43528;DHT22;52359;42.658;23.320;2023-05-29T07:22:27;19.10;99.90
43528;DHT22;52359;42.658;23.320;2023-05-29T07:24:53;19.00;99.90
43528;DHT22;52359;42.658;23.320;2023-05-29T07:27:18;19.00;99.90
43528;DHT22;52359;42.658;23.320;2023-05-29T07:29:44;19.00;99.90
43528;DHT22;52359;42.658;23.320;2023-05-29T07:32:10;19.20;99.90
43528;DHT22;52359;42.658;23.320;2023-05-29T07:34:36;19.40;99.90
43528;DHT22;52359;42.658;23.320;2023-05-29T07:37:06;19.50;99.90
43528;DHT22;52359;42.658;23.320;2023-05-29T07:39:33;19.50;99.90
43528;DHT22;52359;42.658;23.320;2023-05-29T07:42:00;19.20;99.90
43528;DHT22;52359;42.658;23.320;2023-05-29T07:44:26;19.40;99.90
43528;DHT22;52359;42.658;23.320;2023-05-29T07:46:52;19.40;99.90
43528;DHT22;52359;42.658;23.320;2023-05-29T07:49:19;19.70;99.90
43528;DHT22;52359;42.658;23.320;2023-05-29T07:51:45;19.90;99.90
43528;DHT22;52359;42.658;23.320;2023-05-29T07:54:11;19.80;99.90
43528;DHT22;52359;42.658;23.320;2023-05-29T07:56:37;20.00;99.90
43528;DHT22;52359;42.658;23.320;2023-05-29T07:59:04;19.60;99.90
43528;DHT22;52359;42.658;23.320;2023-05-29T08:01:29;19.70;99.90
43528;DHT22;52359;42.658;23.320;2023-05-29T08:03:55;19.90;99.90
43528;DHT22;52359;42.658;23.320;2023-05-29T08:06:21;20.30;99.90
43528;DHT22;52359;42.658;23.320;2023-05-29T08:08:46;20.70;99.90
43528;DHT22;52359;42.658;23.320;2023-05-29T08:11:13;20.70;99.90
43528;DHT22;52359;42.658;23.320;2023-05-29T08:13:38;20.70;99.90
43528;DHT22;52359;42.658;23.320;2023-05-29T08:16:04;20.30;99.90
43528;DHT22;52359;42.658;23.320;2023-05-29T08:18:31;20.20;99.90
43528;DHT22;52359;42.658;23.320;2023-05-29T08:20:58;19.90;99.90
43528;DHT22;52359;42.658;23.320;2023-05-29T08:23:24;19.90;99.90
43528;DHT22;52359;42.658;23.320;2023-05-29T08:25:50;19.90;99.90
43528;DHT22;52359;42.658;23.320;2023-05-29T08:28:16;20.00;99.90
43528;DHT22;52359;42.658;23.320;2023-05-29T08:30:42;19.80;99.90
43528;DHT22;52359;42.658;23.320;2023-05-29T08:33:08;20.00;99.90
43528;DHT22;52359;42.658;23.320;2023-05-29T08:35:33;20.30;99.90
43528;DHT22;52359;42.658;23.320;2023-05-29T08:37:59;20.40;99.90
43528;DHT22;52359;42.658;23.320;2023-05-29T08:40:25;20.50;99.90
43528;DHT22;52359;42.658;23.320;2023-05-29T08:45:34;20.40;99.90
43528;DHT22;52359;42.658;23.320;2023-05-29T08:48:02;20.60;99.90
43528;DHT22;52359;42.658;23.320;2023-05-29T08:50:28;20.80;99.90
43528;DHT22;52359;42.658;23.320;2023-05-29T08:52:56;21.00;99.90
43528;DHT22;52359;42.658;23.320;2023-05-29T08:55:22;21.10;99.90
43528;DHT22;52359;42.658;23.320;2023-05-29T08:57:48;21.10;99.90
43528;DHT22;52359;42.658;23.320;2023-05-29T09:07:50;20.90;99.90
43528;DHT22;52359;42.658;23.320;2023-05-29T09:25:13;21.40;99.90
43528;DHT22;52359;42.658;23.320;2023-05-29T09:27:39;21.60;99.90
43528;DHT22;52359;42.658;23.320;2023-05-29T09:30:05;21.60;99.90
43528;DHT22;52359;42.658;23.320;2023-05-29T09:32:32;21.10;99.90
43528;DHT22;52359;42.658;23.320;2023-05-29T09:35:00;21.40;99.90
43528;DHT22;52359;42.658;23.320;2023-05-29T09:37:26;21.80;99.90
43528;DHT22;52359;42.658;23.320;2023-05-29T09:39:52;22.30;99.90
43528;DHT22;52359;42.658;23.320;2023-05-29T09:42:18;22.40;99.90
43528;DHT22;52359;42.658;23.320;2023-05-29T09:44:52;22.00;99.90
43528;DHT22;52359;42.658;23.320;2023-05-29T09:47:19;21.70;99.90
43528;DHT22;52359;42.658;23.320;2023-05-29T09:49:45;21.60;99.90
43528;DHT22;52359;42.658;23.320;2023-05-29T09:52:15;21.30;99.90
43528;DHT22;52359;42.658;23.320;2023-05-29T09:54:46;21.40;99.90
43528;DHT22;52359;42.658;23.320;2023-05-29T09:57:17;21.40;99.90
43528;DHT22;52359;42.658;23.320;2023-05-29T09:59:43;21.30;99.90
43528;DHT22;52359;42.658;23.320;2023-05-29T10:02:17;21.40;99.90
43528;DHT22;52359;42.658;23.320;2023-05-29T14:40:22;19.70;99.90
43528;DHT22;52359;42.658;23.320;2023-05-29T14:42:47;20.00;99.90
43528;DHT22;52359;42.658;23.320;2023-05-29T14:45:13;20.10;99.90
43528;DHT22;52359;42.658;23.320;2023-05-29T14:47:40;20.10;99.90
43528;DHT22;52359;42.658;23.320;2023-05-29T14:55:03;19.80;99.90
43528;DHT22;52359;42.658;23.320;2023-05-29T14:57:31;20.00;99.90
43528;DHT22;52359;42.658;23.320;2023-05-29T15:00:01;20.00;99.90
43528;DHT22;52359;42.658;23.320;2023-05-29T15:02:27;20.00;99.90
43528;DHT22;52359;42.658;23.320;2023-05-29T15:04:52;20.20;99.90
43528;DHT22;52359;42.658;23.320;2023-05-29T15:07:18;20.30;99.90
43528;DHT22;52359;42.658;23.320;2023-05-29T15:09:44;20.30;99.90
43528;DHT22;52359;42.658;23.320;2023-05-29T15:12:09;20.10;99.90
43528;DHT22;52359;42.658;23.320;2023-05-29T15:21:57;19.80;99.90
43528;DHT22;52359;42.658;23.320;2023-05-29T15:24:22;19.80;99.90
43528;DHT22;52359;42.658;23.320;2023-05-29T15:26:48;20.00;99.90
43528;DHT22;52359;42.658;23.320;2023-05-29T15:29:15;20.00;99.90
43528;DHT22;52359;42.658;23.320;2023-05-29T15:31:41;20.00;99.90
43528;DHT22;52359;42.658;23.320;2023-05-29T15:34:07;19.90;99.90
43528;DHT22;52359;42.658;23.320;2023-05-29T15:36:32;20.00;99.90
43528;DHT22;52359;42.658;23.320;2023-05-29T15:38:58;19.90;99.90
43528;DHT22;52359;42.658;23.320;2023-05-29T15:41:24;19.60;99.90
43528;DHT22;52359;42.658;23.320;2023-05-29T15:43:55;19.50;99.90
43528;DHT22;52359;42.658;23.320;2023-05-29T15:46:21;19.50;99.90
43528;DHT22;52359;42.658;23.320;2023-05-29T15:48:46;19.40;99.90
43528;DHT22;52359;42.658;23.320;2023-05-29T15:56:04;20.00;99.90
43528;DHT22;52359;42.658;23.320;2023-05-29T15:58:30;20.00;99.90
43528;DHT22;52359;42.658;23.320;2023-05-29T16:00:56;19.90;99.90
43528;DHT22;52359;42.658;23.320;2023-05-29T16:03:21;19.80;99.90
43528;DHT22;52359;42.658;23.320;2023-05-29T16:05:47;19.70;99.90
43528;DHT22;52359;42.658;23.320;2023-05-29T16:08:12;19.60;99.90
43528;DHT22;52359;42.658;23.320;2023-05-29T16:10:38;19.60;99.90
43528;DHT22;52359;42.658;23.320;2023-05-29T16:13:06;19.70;99.90
43528;DHT22;52359;42.658;23.320;2023-05-29T16:15:32;19.80;99.90
43528;DHT22;52359;42.658;23.320;2023-05-29T16:17:58;19.60;99.90
43528;DHT22;52359;42.658;23.320;2023-05-29T16:37:28;19.20;99.90
43528;DHT22;52359;42.658;23.320;2023-05-29T16:39:54;19.30;99.90
43528;DHT22;52359;42.658;23.320;2023-05-29T16:42:19;19.10;99.90
43528;DHT22;52359;42.658;23.320;2023-05-29T16:44:45;19.10;99.90
43528;DHT22;52359;42.658;23.320;2023-05-29T16:47:11;19.00;99.90
43528;DHT22;52359;42.658;23.320;2023-05-29T16:49:36;18.70;99.90
43528;DHT22;52359;42.658;23.320;2023-05-29T16:52:02;18.80;99.90
43528;DHT22;52359;42.658;23.320;2023-05-29T16:54:28;18.70;99.90
43528;DHT22;52359;42.658;23.320;2023-05-29T16:56:56;18.60;99.90
43528;DHT22;52359;42.658;23.320;2023-05-29T16:59:21;18.80;99.90
43528;DHT22;52359;42.658;23.320;2023-05-29T17:01:47;18.80;99.90
43528;DHT22;52359;42.658;23.320;2023-05-29T17:04:13;18.50;99.90
43528;DHT22;52359;42.658;23.320;2023-05-29T17:06:38;18.40;99.90
43528;DHT22;52359;42.658;23.320;2023-05-29T17:09:04;18.40;99.90
43528;DHT22;52359;42.658;23.320;2023-05-29T17:11:30;18.30;99.90
43528;DHT22;52359;42.658;23.320;2023-05-29T17:13:56;18.40;99.90
43528;DHT22;52359;42.658;23.320;2023-05-29T17:16:21;18.50;99.90
43528;DHT22;52359;42.658;23.320;2023-05-29T17:18:47;18.40;99.90
43528;DHT22;52359;42.658;23.320;2023-05-29T17:21:13;18.50;99.90
43528;DHT22;52359;42.658;23.320;2023-05-29T17:23:38;18.50;99.90
43528;DHT22;52359;42.658;23.320;2023-05-29T17:26:04;18.30;99.90
43528;DHT22;52359;42.658;23.320;2023-05-29T17:28:30;18.30;99.90
43528;DHT22;52359;42.658;23.320;2023-05-29T17:30:55;18.50;99.90
43528;DHT22;52359;42.658;23.320;2023-05-29T17:33:21;18.40;99.90
43528;DHT22;52359;42.658;23.320;2023-05-29T17:35:47;18.40;99.90
43528;DHT22;52359;42.658;23.320;2023-05-29T17:55:15;18.60;99.90
43528;DHT22;52359;42.658;23.320;2023-05-29T17:57:41;18.40;99.90
43528;DHT22;52359;42.658;23.320;2023-05-29T18:00:07;18.10;99.90
43528;DHT22;52359;42.658;23.320;2023-05-29T18:02:33;17.90;99.90
43528;DHT22;52359;42.658;23.320;2023-05-29T18:05:01;17.60;99.90
43528;DHT22;52359;42.658;23.320;2023-05-29T18:07:27;17.50;99.90
43528;DHT22;52359;42.658;23.320;2023-05-29T18:09:53;17.50;99.90
43528;DHT22;52359;42.658;23.320;2023-05-29T18:12:18;17.40;99.90
43528;DHT22;52359;42.658;23.320;2023-05-29T18:14:44;17.40;99.90
43528;DHT22;52359;42.658;23.320;2023-05-29T18:17:11;17.40;99.90
43528;DHT22;52359;42.658;23.320;2023-05-29T18:19:36;17.50;99.90
43528;DHT22;52359;42.658;23.320;2023-05-29T18:22:05;17.30;99.90
43528;DHT22;52359;42.658;23.320;2023-05-29T18:24:31;17.10;99.90
43528;DHT22;52359;42.658;23.320;2023-05-29T18:26:57;17.00;99.90
43528;DHT22;52359;42.658;23.320;2023-05-29T18:29:22;16.90;99.90
43528;DHT22;52359;42.658;23.320;2023-05-29T18:31:48;16.80;99.90
43528;DHT22;52359;42.658;23.320;2023-05-29T18:34:14;16.80;99.90
43528;DHT22;52359;42.658;23.320;2023-05-29T18:36:39;16.80;99.90
43528;DHT22;52359;42.658;23.320;2023-05-29T20:24:12;15.80;99.90
43528;DHT22;52359;42.658;23.320;2023-05-29T20:26:39;15.80;99.90
43528;DHT22;52359;42.658;23.320;2023-05-29T20:29:04;15.90;99.90
43528;DHT22;52359;42.658;23.320;2023-05-29T20:31:30;15.80;99.90
43528;DHT22;52359;42.658;23.320;2023-05-29T20:33:56;15.70;99.90
43528;DHT22;52359;42.658;23.320;2023-05-29T20:36:21;15.70;99.90
43528;DHT22;52359;42.658;23.320;2023-05-29T20:38:49;15.70;99.90
43528;DHT22;52359;42.658;23.320;2023-05-29T20:41:14;15.70;99.90
43528;DHT22;52359;42.658;23.320;2023-05-29T20:43:44;15.80;99.90
43528;DHT22;52359;42.658;23.320;2023-05-29T20:46:19;16.00;99.90
43528;DHT22;52359;42.658;23.320;2023-05-29T20:48:44;15.70;99.90
43528;DHT22;52359;42.658;23.320;2023-05-29T23:35:29;13.80;99.90
43528;DHT22;52359;42.658;23.320;2023-05-29T23:37:55;13.60;99.90
